Dubna, Russia
Current Conditions -  °F | °C
As of 1:30 AM on Tuesday 27 Jan 2015 (Local Time) from UUEE Reporting Station
Light Snow Light Snow  
Wind Chill:   Ceiling: 1100
Heat Index: 16°   Visibility: 6mi
Dew Point: 12°   Wind: 4mph
Humidity: 86%   Direction: 160°SSE
Pressure: 30.15"   Gusts: NA
Location:  56.75°N, 37.15°E
Report Text: UUEE 262230Z 16002MPS 9000 -SN OVC011 M09/M11 Q1021 7545023025450240 NOSIG
Loading
Personal Weather Stations






























Interactive Weather Map New forecast layout! Learn more

10-Day Weather Forecast

Advertisements
Track Severe Weather on mobile